| time (UTC) | temp F | wind direction | speed MPH | gust MPH | rain 1hr in | rain 24hr in | rain mn in | humidity % | barometer mb |
| 20260903110107 | 76 | 0 | 0.0 | 0.0 | 0.00 | 0.00 | 0.00 | 81 | 1012.8 |
| 20260903104604 | 76 | 0 | 0.0 | 3.0 | 0.00 | 0.00 | 0.00 | 81 | 1012.6 |
| 20260903103101 | 76 | 0 | 0.0 | 0.0 | 0.00 | 0.00 | 0.00 | 81 | 1012.7 |
| 20260903101602 | 76 | 0 | 0.0 | 0.0 | 0.00 | 0.00 | 0.00 | 81 | 1012.7 |
| 20260903100058 | 76 | 0 | 0.0 | 0.0 | 0.00 | 0.00 | 0.00 | 81 | 1012.7 |
| 20260903094605 | 76 | 0 | 0.0 | 0.0 | 0.00 | 0.00 | 0.00 | 81 | 1012.5 |
| 20260903093105 | 76 | 0 | 0.0 | 0.0 | 0.00 | 0.00 | 0.00 | 81 | 1012.4 |
| 20260903091608 | 76 | 0 | 0.0 | 0.0 | 0.00 | 0.00 | 0.00 | 81 | 1012.4 |
| 20260903090101 | 76 | 0 | 0.0 | 0.0 | 0.00 | 0.00 | 0.00 | 81 | 1012.4 |
| 20260903084618 | 76 | 0 | 0.0 | 0.0 | 0.00 | 0.00 | 0.00 | 80 | 1012.6 |
| 20260903083103 | 77 | 0 | 0.0 | 0.0 | 0.00 | 0.00 | 0.00 | 79 | 1012.9 |
| 20260903081602 | 77 | 0 | 0.0 | 0.0 | 0.00 | 0.00 | 0.00 | 78 | 1012.8 |
| 20260903080100 | 77 | 0 | 0.0 | 0.0 | 0.00 | 0.00 | 0.00 | 77 | 1012.9 |
| 20260903074604 | 78 | 0 | 0.0 | 0.0 | 0.00 | 0.00 | 0.00 | 76 | 1012.8 |
| 20260903073107 | 78 | 0 | 0.0 | 0.0 | 0.00 | 0.00 | 0.00 | 75 | 1012.8 |
| 20260903071559 | 79 | 0 | 0.0 | 0.0 | 0.00 | 0.00 | 0.00 | 74 | 1012.8 |
| 20260903070057 | 79 | 0 | 0.0 | 0.0 | 0.00 | 0.00 | 0.00 | 73 | 1013.1 |
| 20260903064600 | 79 | 0 | 0.0 | 3.0 | 0.00 | 0.00 | 0.00 | 72 | 1013.2 |
| 20260903063103 | 80 | 0 | 0.0 | 6.0 | 0.00 | 0.00 | 0.00 | 71 | 1013.4 |
| 20260903061558 | 80 | 0 | 0.0 | 9.0 | 0.00 | 0.00 | 0.00 | 71 | 1013.4 |
| 20260903060109 | 81 | 0 | 1.0 | 8.0 | 0.00 | 0.00 | 0.00 | 69 | 1013.4 |
| 20260903054558 | 81 | 110 | 0.0 | 6.0 | 0.00 | 0.00 | 0.00 | 68 | 1013.6 |
| 20260903053107 | 82 | 107 | 0.0 | 4.0 | 0.00 | 0.00 | 0.00 | 67 | 1013.3 |
| 20260903051605 | 82 | 0 | 0.0 | 8.0 | 0.00 | 0.00 | 0.00 | 67 | 1013.3 |
| 20260903050105 | 83 | 151 | 0.0 | 4.0 | 0.00 | 0.00 | 0.00 | 67 | 1013.3 |
| 20260903044604 | 83 | 0 | 0.0 | 7.0 | 0.00 | 0.00 | 0.00 | 66 | 1013.1 |
| 20260903043059 | 84 | 0 | 0.0 | 6.0 | 0.00 | 0.00 | 0.00 | 65 | 1013.2 |
| 20260903041601 | 85 | 0 | 0.0 | 4.0 | 0.00 | 0.00 | 0.00 | 64 | 1013.2 |
| 20260903040101 | 85 | 101 | 1.0 | 6.0 | 0.00 | 0.00 | 0.00 | 63 | 1013.4 |
| 20260903034559 | 86 | 0 | 1.0 | 7.0 | 0.00 | 0.00 | 0.00 | 61 | 1013.2 |
| 20260903033102 | 86 | 0 | 0.0 | 6.0 | 0.00 | 0.00 | 0.00 | 59 | 1013.2 |
| 20260903031558 | 87 | 0 | 1.0 | 6.0 | 0.00 | 0.00 | 0.00 | 58 | 1013.1 |
| 20260903030103 | 87 | 0 | 0.0 | 7.0 | 0.00 | 0.00 | 0.00 | 57 | 1013.0 |
| 20260903024600 | 88 | 0 | 0.0 | 7.0 | 0.00 | 0.00 | 0.00 | 56 | 1012.8 |
| 20260903023102 | 88 | 94 | 1.0 | 7.0 | 0.00 | 0.00 | 0.00 | 55 | 1012.5 |
| 20260903021602 | 89 | 105 | 0.0 | 6.0 | 0.00 | 0.00 | 0.00 | 54 | 1012.4 |
| 20260903020104 | 90 | 158 | 0.0 | 9.0 | 0.00 | 0.00 | 0.00 | 52 | 1012.1 |
| 20260903014612 | 91 | 0 | 1.0 | 10.0 | 0.00 | 0.00 | 0.00 | 49 | 1012.0 |
| 20260903013103 | 92 | 0 | 0.0 | 8.0 | 0.00 | 0.00 | 0.00 | 46 | 1011.8 |
| 20260903011608 | 92 | 113 | 3.0 | 10.0 | 0.00 | 0.00 | 0.00 | 45 | 1011.6 |
| 20260903010107 | 94 | 105 | 3.0 | 12.0 | 0.00 | 0.00 | 0.00 | 44 | 1011.3 |
| 20260903004559 | 95 | 0 | 1.0 | 11.0 | 0.00 | 0.00 | 0.00 | 41 | 1011.2 |
| 20260903003102 | 96 | 0 | 0.0 | 6.0 | 0.00 | 0.00 | 0.00 | 40 | 1011.2 |
| 20260903001605 | 96 | 0 | 0.0 | 8.0 | 0.00 | 0.00 | 0.00 | 39 | 1011.2 |
| 20260902234601 | 97 | 99 | 0.0 | 11.0 | 0.00 | 0.00 | 0.00 | 39 | 1011.2 |
| 20260902233104 | 98 | 0 | 1.0 | 8.0 | 0.00 | 0.00 | 0.00 | 38 | 1011.1 |
| 20260902231606 | 100 | 90 | 0.0 | 7.0 | 0.00 | 0.00 | 0.00 | 36 | 1011.1 |
| 20260902230115 | 101 | 0 | 0.0 | 3.0 | 0.00 | 0.00 | 0.00 | 35 | 1011.1 |
| 20260902224609 | 100 | 0 | 0.0 | 9.0 | 0.00 | 0.00 | 0.00 | 35 | 1011.2 |
| 20260902223119 | 100 | 0 | 0.0 | 7.0 | 0.00 | 0.00 | 0.00 | 36 | 1011.3 |
| 20260902221607 | 101 | 0 | 0.0 | 7.0 | 0.00 | 0.00 | 0.00 | 35 | 1011.4 |
| 20260902220108 | 100 | 0 | 0.0 | 6.0 | 0.00 | 0.00 | 0.00 | 37 | 1011.5 |
| 20260902214601 | 100 | 0 | 0.0 | 6.0 | 0.00 | 0.00 | 0.00 | 37 | 1011.6 |
| 20260902213111 | 101 | 135 | 0.0 | 2.0 | 0.00 | 0.00 | 0.00 | 36 | 1011.7 |
| 20260902211608 | 100 | 0 | 0.0 | 5.0 | 0.00 | 0.00 | 0.00 | 37 | 1011.8 |
| 20260902210104 | 101 | 0 | 0.0 | 3.0 | 0.00 | 0.00 | 0.00 | 36 | 1012.0 |
| 20260902204609 | 101 | 103 | 0.0 | 6.0 | 0.00 | 0.00 | 0.00 | 36 | 1012.1 |
| 20260902203101 | 101 | 0 | 0.0 | 5.0 | 0.00 | 0.00 | 0.00 | 37 | 1012.3 |
| 20260902201558 | 102 | 0 | 0.0 | 6.0 | 0.00 | 0.00 | 0.00 | 34 | 1012.5 |
| 20260902200059 | 102 | 0 | 0.0 | 1.0 | 0.00 | 0.00 | 0.00 | 37 | 1012.7 |
| 20260902194558 | 101 | 0 | 0.0 | 10.0 | 0.00 | 0.00 | 0.00 | 36 | 1013.1 |
| 20260902193108 | 101 | 0 | 0.0 | 3.0 | 0.00 | 0.00 | 0.00 | 37 | 1013.2 |
| 20260902191605 | 98 | 0 | 0.0 | 8.0 | 0.00 | 0.00 | 0.00 | 39 | 1013.7 |
| 20260902190108 | 97 | 0 | 0.0 | 10.0 | 0.00 | 0.00 | 0.00 | 41 | 1013.9 |
| 20260902184658 | 98 | 0 | 1.0 | 13.0 | 0.00 | 0.00 | 0.00 | 41 | 1013.9 |
| 20260902183121 | 99 | 0 | 0.0 | 4.0 | 0.00 | 0.00 | 0.00 | 39 | 1014.1 |
| 20260902181605 | 99 | 112 | 0.0 | 0.0 | 0.00 | 0.00 | 0.00 | 43 | 1014.5 |
| 20260902180105 | 97 | 0 | 0.0 | 5.0 | 0.00 | 0.00 | 0.00 | 45 | 1014.8 |
| 20260902174606 | 97 | 0 | 0.0 | 4.0 | 0.00 | 0.00 | 0.00 | 44 | 1015.0 |
| 20260902173059 | 97 | 138 | 1.0 | 6.0 | 0.00 | 0.00 | 0.00 | 41 | 1015.2 |
| 20260902171606 | 96 | 0 | 0.0 | 8.0 | 0.00 | 0.00 | 0.00 | 42 | 1015.5 |
| 20260902164603 | 95 | 0 | 0.0 | 0.0 | 0.00 | 0.00 | 0.00 | 44 | 1015.6 |
| 20260902163103 | 94 | 0 | 0.0 | 4.0 | 0.00 | 0.00 | 0.00 | 48 | 1015.9 |
| 20260902161608 | 92 | 0 | 0.0 | 7.0 | 0.00 | 0.00 | 0.00 | 49 | 1015.9 |
| 20260902154600 | 91 | 114 | 0.0 | 4.0 | 0.00 | 0.00 | 0.00 | 53 | 1016.0 |
| 20260902153109 | 90 | 0 | 0.0 | 4.0 | 0.00 | 0.00 | 0.00 | 55 | 1015.9 |
| 20260902151609 | 89 | 0 | 0.0 | 0.0 | 0.00 | 0.00 | 0.00 | 58 | 1016.0 |
| 20260902150106 | 87 | 0 | 0.0 | 4.0 | 0.00 | 0.00 | 0.00 | 60 | 1016.0 |
| 20260902144619 | 86 | 0 | 1.0 | 6.0 | 0.00 | 0.00 | 0.00 | 62 | 1015.9 |
| 20260902143104 | 85 | 97 | 0.0 | 7.0 | 0.00 | 0.00 | 0.00 | 64 | 1016.0 |
| 20260902141611 | 84 | 0 | 0.0 | 8.0 | 0.00 | 0.00 | 0.00 | 65 | 1016.1 |
| 20260902140104 | 84 | 0 | 0.0 | 6.0 | 0.00 | 0.00 | 0.00 | 66 | 1016.1 |
| 20260902134612 | 82 | 0 | 0.0 | 4.0 | 0.00 | 0.00 | 0.00 | 70 | 1016.1 |
| 20260902133109 | 80 | 0 | 0.0 | 0.0 | 0.00 | 0.00 | 0.00 | 73 | 1016.0 |
| 20260902131603 | 78 | 0 | 0.0 | 0.0 | 0.00 | 0.00 | 0.00 | 75 | 1016.0 |
| 20260902124616 | 77 | 0 | 0.0 | 0.0 | 0.00 | 0.00 | 0.00 | 77 | 1015.7 |
| 20260902123124 | 77 | 0 | 0.0 | 0.0 | 0.00 | 0.00 | 0.00 | 77 | 1015.6 |
| 20260902121608 | 77 | 0 | 0.0 | 0.0 | 0.00 | 0.00 | 0.00 | 78 | 1015.3 |
| 20260902120104 | 77 | 0 | 0.0 | 0.0 | 0.00 | 0.00 | 0.00 | 77 | 1015.2 |
| 20260902114605 | 77 | 0 | 0.0 | 0.0 | 0.00 | 0.00 | 0.00 | 77 | 1015.4 |
| 20260902113111 | 77 | 0 | 0.0 | 0.0 | 0.00 | 0.00 | 0.00 | 79 | 1015.5 |
| 20260902111559 | 77 | 0 | 0.0 | 0.0 | 0.00 | 0.00 | 0.00 | 78 | 1015.5 |